»·PEaware :: N321ES KSNA-KSNA

N321ES :: KSNA-KSNA

FLIGHT INFORMATION

Flight Status: Arrived
Operator: Privately registered:
United States
More flights under this callsign
Pilot: Jean Philippe V. (32571)
Aircraft: BEECH AIRCRAFT BONANZA
(BE36)
More flights by this aircraft type
Origin: KSNA John Wayne-Orange Co
United States
Destination: KSNA John Wayne-Orange Co
United States
More flights between these airports :: More routes between these airports
Route: SLI
File this flight plan on PilotEdge
Remarks:
Altitude:
(Current/Filed)
3,000ft
Speed:
(Current/Filed)
150kts
Departed: 25-Nov-20 12:29 PM
Arrived: 25-Nov-20 12:55 PM
Distance/Time
Traveled:
6774nm/0:26
Distance/Time
To Go:
Arrived

Flight Plot

Page will automatically refresh every two minutes.


Map Options




Map Legend


Flown Route
Filed Route
Departure Airport
Arrival Airport
Navaid (VOR, NDB)
Fix

Horizontal Profiles

Position Reports

Time Latitude Longitude Heading Altitude Ground
Speed
25-Nov-20 11:56 0.000408 0.013975 359 3ft 0kts
25-Nov-20 11:57 0.000408 0.013975 359 3ft 0kts
25-Nov-20 11:58 0.000408 0.013975 359 3ft 0kts
25-Nov-20 11:59 33.671456 -117.867267 177 47ft 0kts
25-Nov-20 12:00 33.671456 -117.867267 177 47ft 0kts
25-Nov-20 12:01 33.671456 -117.867267 177 47ft 0kts
25-Nov-20 12:09 33.671457 -117.867267 177 52ft 0kts
25-Nov-20 12:10 33.671457 -117.867267 177 52ft 0kts
25-Nov-20 12:11 33.671457 -117.867267 177 52ft 0kts
25-Nov-20 12:12 33.671457 -117.867267 177 52ft 0kts
25-Nov-20 12:13 33.671457 -117.867267 177 52ft 0kts
25-Nov-20 12:14 33.671457 -117.867267 177 52ft 0kts
25-Nov-20 12:15 33.671457 -117.867267 177 52ft 0kts
25-Nov-20 12:16 33.671457 -117.867267 177 52ft 0kts
25-Nov-20 12:17 33.671457 -117.867267 177 52ft 0kts
25-Nov-20 12:18 33.671457 -117.867267 177 52ft 0kts
25-Nov-20 12:19 33.671452 -117.867267 178 52ft 0kts
25-Nov-20 12:20 33.673207 -117.867229 46 57ft 14kts
25-Nov-20 12:21 33.676665 -117.865516 26 53ft 15kts
25-Nov-20 12:22 33.679965 -117.863644 293 44ft 0kts
25-Nov-20 12:23 33.679965 -117.863644 293 44ft 0kts
25-Nov-20 12:24 33.679965 -117.863644 293 44ft 0kts
25-Nov-20 12:25 33.679965 -117.863643 293 44ft 0kts
25-Nov-20 12:26 33.679965 -117.863643 293 44ft 0kts
25-Nov-20 12:27 33.679965 -117.863644 293 44ft 0kts
25-Nov-20 12:28 33.671933 -117.869364 207 143ft 100kts
25-Nov-20 12:29 33.650295 -117.895246 231 1265ft 114kts
25-Nov-20 12:30 33.629214 -117.928406 233 1881ft 144kts
25-Nov-20 12:31 33.603869 -117.969212 233 1911ft 154kts
25-Nov-20 12:32 33.579234 -118.009165 233 1912ft 147kts
25-Nov-20 12:33 33.593596 -118.033983 17 2351ft 126kts
25-Nov-20 12:34 33.624493 -118.013485 32 2854ft 132kts
25-Nov-20 12:35 33.655623 -117.988398 33 2909ft 145kts
25-Nov-20 12:36 33.689760 -117.960823 33 2909ft 152kts
25-Nov-20 12:37 33.725178 -117.932306 33 2908ft 154kts
25-Nov-20 12:38 33.760917 -117.903664 33 2906ft 154kts
25-Nov-20 12:39 33.796705 -117.875234 33 2903ft 152kts
25-Nov-20 12:40 33.832874 -117.846665 33 2901ft 157kts
25-Nov-20 12:41 33.869550 -117.817815 33 2898ft 158kts
25-Nov-20 12:42 33.906443 -117.788817 33 2897ft 158kts
25-Nov-20 12:43 33.942427 -117.760416 33 2892ft 148kts
25-Nov-20 12:44 33.976855 -117.730129 67 2890ft 157kts
25-Nov-20 12:45 33.948135 -117.703829 177 2892ft 154kts
25-Nov-20 12:46 33.906816 -117.715938 211 2892ft 156kts
25-Nov-20 12:47 33.871938 -117.744853 212 2891ft 150kts
25-Nov-20 12:49 33.834226 -117.770122 208 2894ft 157kts
25-Nov-20 12:50 33.797750 -117.790601 204 2829ft 112kts
25-Nov-20 12:51 33.770729 -117.809046 207 1960ft 105kts
25-Nov-20 12:52 33.745029 -117.825622 213 1496ft 106kts
25-Nov-20 12:53 33.718108 -117.842033 207 859ft 111kts
25-Nov-20 12:54 33.691638 -117.858838 210 297ft 106kts
25-Nov-20 12:55 33.674053 -117.869932 208 54ft 28kts
25-Nov-20 12:56 33.669979 -117.872211 169 59ft 10kts
25-Nov-20 12:57 33.669154 -117.871576 127 58ft 0kts
25-Nov-20 12:58 33.669153 -117.871576 127 58ft 0kts
25-Nov-20 12:59 33.671636 -117.868503 33 55ft 15kts
25-Nov-20 13:00 33.671518 -117.867445 207 52ft 0kts
25-Nov-20 13:01 0.000408 0.013975 0 3ft 0kts
25-Nov-20 13:02 0.000408 0.013975 0 3ft 0kts

Navigation Log

Ident Type
Flight plan parsing failed, navigation log unavailable